sensor_id;sensor_type;location;lat;lon;timestamp;P1;P2;P0
34176;PMS7003;20450;49.074;9.158;2023-12-14T00:01:12;3.00;1.00;1.00
34176;PMS7003;20450;49.074;9.158;2023-12-14T00:03:39;4.00;4.00;3.75
34176;PMS7003;20450;49.074;9.158;2023-12-14T00:06:08;4.50;1.00;1.00
34176;PMS7003;20450;49.074;9.158;2023-12-14T00:08:35;5.25;4.50;3.50
34176;PMS7003;20450;49.074;9.158;2023-12-14T00:11:05;5.50;5.50;3.75
34176;PMS7003;20450;49.074;9.158;2023-12-14T00:13:34;5.00;4.00;2.00
34176;PMS7003;20450;49.074;9.158;2023-12-14T00:16:01;4.50;3.00;3.00
34176;PMS7003;20450;49.074;9.158;2023-12-14T00:18:30;5.50;5.50;4.00
34176;PMS7003;20450;49.074;9.158;2023-12-14T00:20:58;4.00;4.00;3.00
34176;PMS7003;20450;49.074;9.158;2023-12-14T00:23:25;2.50;2.50;1.00
34176;PMS7003;20450;49.074;9.158;2023-12-14T00:25:52;1.00;1.00;1.00
34176;PMS7003;20450;49.074;9.158;2023-12-14T00:28:20;2.00;2.00;1.50
34176;PMS7003;20450;49.074;9.158;2023-12-14T00:30:49;5.25;3.00;1.00
34176;PMS7003;20450;49.074;9.158;2023-12-14T00:33:17;4.25;4.00;3.25
34176;PMS7003;20450;49.074;9.158;2023-12-14T00:35:45;5.00;5.00;4.00
34176;PMS7003;20450;49.074;9.158;2023-12-14T00:38:12;4.50;4.50;4.00
34176;PMS7003;20450;49.074;9.158;2023-12-14T00:40:40;6.75;6.75;4.75
34176;PMS7003;20450;49.074;9.158;2023-12-14T00:43:07;3.00;3.00;2.50
34176;PMS7003;20450;49.074;9.158;2023-12-14T00:45:35;3.00;1.00;1.00
34176;PMS7003;20450;49.074;9.158;2023-12-14T00:48:02;6.25;3.75;3.00
34176;PMS7003;20450;49.074;9.158;2023-12-14T00:50:30;3.00;3.00;3.00
34176;PMS7003;20450;49.074;9.158;2023-12-14T00:52:57;3.00;3.00;1.00
34176;PMS7003;20450;49.074;9.158;2023-12-14T00:55:24;7.00;4.00;3.00
34176;PMS7003;20450;49.074;9.158;2023-12-14T00:57:51;5.50;5.25;5.00
34176;PMS7003;20450;49.074;9.158;2023-12-14T01:00:18;5.50;5.50;4.75
34176;PMS7003;20450;49.074;9.158;2023-12-14T01:02:48;6.00;5.25;5.00
34176;PMS7003;20450;49.074;9.158;2023-12-14T01:05:16;6.50;6.50;5.75
34176;PMS7003;20450;49.074;9.158;2023-12-14T01:07:44;7.00;6.00;5.00
34176;PMS7003;20450;49.074;9.158;2023-12-14T01:10:11;6.25;6.00;5.50
34176;PMS7003;20450;49.074;9.158;2023-12-14T01:12:38;5.00;4.00;3.00
34176;PMS7003;20450;49.074;9.158;2023-12-14T01:15:06;6.50;6.50;4.00
34176;PMS7003;20450;49.074;9.158;2023-12-14T01:17:34;1.00;1.00;1.00
34176;PMS7003;20450;49.074;9.158;2023-12-14T01:20:04;5.50;3.25;2.00
34176;PMS7003;20450;49.074;9.158;2023-12-14T01:22:32;6.75;6.75;5.75
34176;PMS7003;20450;49.074;9.158;2023-12-14T01:25:00;7.50;7.25;5.75
34176;PMS7003;20450;49.074;9.158;2023-12-14T01:27:27;7.00;6.25;5.00
34176;PMS7003;20450;49.074;9.158;2023-12-14T01:29:53;9.00;7.75;6.25
34176;PMS7003;20450;49.074;9.158;2023-12-14T01:32:22;6.00;6.00;5.00
34176;PMS7003;20450;49.074;9.158;2023-12-14T01:34:49;6.50;6.50;5.25
34176;PMS7003;20450;49.074;9.158;2023-12-14T01:37:18;7.00;5.75;5.00
34176;PMS7003;20450;49.074;9.158;2023-12-14T01:39:45;4.75;4.75;4.00
34176;PMS7003;20450;49.074;9.158;2023-12-14T01:42:14;9.00;6.75;4.75
34176;PMS7003;20450;49.074;9.158;2023-12-14T01:44:41;4.75;4.75;4.00
34176;PMS7003;20450;49.074;9.158;2023-12-14T01:47:07;6.50;6.50;5.50
34176;PMS7003;20450;49.074;9.158;2023-12-14T01:49:35;8.25;6.75;5.00
34176;PMS7003;20450;49.074;9.158;2023-12-14T01:52:02;7.25;7.00;5.50
34176;PMS7003;20450;49.074;9.158;2023-12-14T01:54:31;7.00;7.00;6.00
34176;PMS7003;20450;49.074;9.158;2023-12-14T01:56:58;9.00;8.50;6.25
34176;PMS7003;20450;49.074;9.158;2023-12-14T01:59:25;6.00;6.00;5.75
34176;PMS7003;20450;49.074;9.158;2023-12-14T02:01:53;10.50;10.50;6.00
34176;PMS7003;20450;49.074;9.158;2023-12-14T02:04:23;4.00;4.00;3.00
34176;PMS7003;20450;49.074;9.158;2023-12-14T02:06:52;3.00;3.00;3.00
34176;PMS7003;20450;49.074;9.158;2023-12-14T02:09:19;4.00;4.00;3.00
34176;PMS7003;20450;49.074;9.158;2023-12-14T02:11:47;6.00;4.00;3.75
34176;PMS7003;20450;49.074;9.158;2023-12-14T02:14:14;3.00;3.00;3.00
34176;PMS7003;20450;49.074;9.158;2023-12-14T02:16:41;6.00;6.00;5.00
34176;PMS7003;20450;49.074;9.158;2023-12-14T02:19:10;4.00;4.00;3.00
34176;PMS7003;20450;49.074;9.158;2023-12-14T02:21:37;5.50;5.50;5.00
34176;PMS7003;20450;49.074;9.158;2023-12-14T02:24:06;10.50;8.25;6.00
34176;PMS7003;20450;49.074;9.158;2023-12-14T02:26:33;10.75;10.00;7.00
34176;PMS7003;20450;49.074;9.158;2023-12-14T02:29:00;8.00;7.00;6.00
34176;PMS7003;20450;49.074;9.158;2023-12-14T02:31:27;6.00;3.25;3.00
34176;PMS7003;20450;49.074;9.158;2023-12-14T02:33:57;7.50;7.50;6.50
34176;PMS7003;20450;49.074;9.158;2023-12-14T02:36:24;8.25;8.00;6.50
34176;PMS7003;20450;49.074;9.158;2023-12-14T02:38:51;5.50;3.25;2.00
34176;PMS7003;20450;49.074;9.158;2023-12-14T02:41:21;3.50;3.50;2.00
34176;PMS7003;20450;49.074;9.158;2023-12-14T02:43:48;6.50;4.00;3.50
34176;PMS7003;20450;49.074;9.158;2023-12-14T02:46:14;6.50;6.50;5.50
34176;PMS7003;20450;49.074;9.158;2023-12-14T02:48:42;9.00;7.25;5.00
34176;PMS7003;20450;49.074;9.158;2023-12-14T02:51:14;6.00;6.00;3.50
34176;PMS7003;20450;49.074;9.158;2023-12-14T02:53:42;3.00;3.00;1.00
34176;PMS7003;20450;49.074;9.158;2023-12-14T02:56:09;2.75;2.00;1.50
34176;PMS7003;20450;49.074;9.158;2023-12-14T02:58:38;6.50;4.00;3.00
34176;PMS7003;20450;49.074;9.158;2023-12-14T03:01:09;3.75;1.00;1.00
34176;PMS7003;20450;49.074;9.158;2023-12-14T03:03:39;4.50;4.50;4.00
34176;PMS7003;20450;49.074;9.158;2023-12-14T03:06:06;7.50;7.50;7.00
34176;PMS7003;20450;49.074;9.158;2023-12-14T03:08:33;5.25;4.50;3.75
34176;PMS7003;20450;49.074;9.158;2023-12-14T03:11:00;6.00;4.00;3.00
34176;PMS7003;20450;49.074;9.158;2023-12-14T03:13:27;3.25;3.25;3.00
34176;PMS7003;20450;49.074;9.158;2023-12-14T03:15:56;4.00;4.00;3.00
34176;PMS7003;20450;49.074;9.158;2023-12-14T03:18:23;6.00;5.00;3.00
34176;PMS7003;20450;49.074;9.158;2023-12-14T03:20:50;6.25;4.50;3.00
34176;PMS7003;20450;49.074;9.158;2023-12-14T03:23:17;8.00;8.00;6.75
34176;PMS7003;20450;49.074;9.158;2023-12-14T03:25:45;8.50;8.50;6.50
34176;PMS7003;20450;49.074;9.158;2023-12-14T03:28:12;6.25;4.25;3.50
34176;PMS7003;20450;49.074;9.158;2023-12-14T03:30:39;6.50;6.50;4.00
34176;PMS7003;20450;49.074;9.158;2023-12-14T03:33:07;9.00;4.00;3.00
34176;PMS7003;20450;49.074;9.158;2023-12-14T03:35:35;6.50;6.50;4.00
34176;PMS7003;20450;49.074;9.158;2023-12-14T03:38:02;6.75;5.50;4.00
34176;PMS7003;20450;49.074;9.158;2023-12-14T03:40:29;6.75;6.75;4.00
34176;PMS7003;20450;49.074;9.158;2023-12-14T03:42:56;9.00;6.00;3.25
34176;PMS7003;20450;49.074;9.158;2023-12-14T03:45:23;6.00;6.00;3.75
34176;PMS7003;20450;49.074;9.158;2023-12-14T03:47:50;8.00;7.00;4.00
34176;PMS7003;20450;49.074;9.158;2023-12-14T03:50:19;6.00;6.00;4.50
34176;PMS7003;20450;49.074;9.158;2023-12-14T03:52:46;4.00;3.75;3.00
34176;PMS7003;20450;49.074;9.158;2023-12-14T03:55:15;1.00;1.00;0.75
34176;PMS7003;20450;49.074;9.158;2023-12-14T03:57:42;7.00;6.00;3.75
34176;PMS7003;20450;49.074;9.158;2023-12-14T04:00:09;2.00;1.00;0.75
34176;PMS7003;20450;49.074;9.158;2023-12-14T04:02:38;6.50;6.00;4.00
34176;PMS7003;20450;49.074;9.158;2023-12-14T04:05:06;6.25;6.25;6.00
34176;PMS7003;20450;49.074;9.158;2023-12-14T04:07:37;7.25;4.00;3.00
34176;PMS7003;20450;49.074;9.158;2023-12-14T04:10:08;5.50;5.50;3.50
34176;PMS7003;20450;49.074;9.158;2023-12-14T04:12:36;9.50;7.00;4.00
34176;PMS7003;20450;49.074;9.158;2023-12-14T04:15:03;5.00;5.00;3.75
34176;PMS7003;20450;49.074;9.158;2023-12-14T04:17:33;6.25;5.50;4.00
34176;PMS7003;20450;49.074;9.158;2023-12-14T04:20:00;6.50;6.50;6.00
34176;PMS7003;20450;49.074;9.158;2023-12-14T04:22:29;9.00;4.50;3.00
34176;PMS7003;20450;49.074;9.158;2023-12-14T04:24:57;8.50;8.50;6.00
34176;PMS7003;20450;49.074;9.158;2023-12-14T04:27:24;6.00;4.00;3.00
34176;PMS7003;20450;49.074;9.158;2023-12-14T04:29:53;6.75;6.75;5.00
34176;PMS7003;20450;49.074;9.158;2023-12-14T04:32:20;5.00;5.00;4.00
34176;PMS7003;20450;49.074;9.158;2023-12-14T04:34:47;9.75;6.00;4.00
34176;PMS7003;20450;49.074;9.158;2023-12-14T04:37:16;6.25;6.25;4.00
34176;PMS7003;20450;49.074;9.158;2023-12-14T04:39:44;6.00;4.00;4.00
34176;PMS7003;20450;49.074;9.158;2023-12-14T04:42:12;7.50;7.50;5.50
34176;PMS7003;20450;49.074;9.158;2023-12-14T04:44:39;9.75;5.00;3.75
34176;PMS7003;20450;49.074;9.158;2023-12-14T04:47:06;4.00;4.00;3.00
34176;PMS7003;20450;49.074;9.158;2023-12-14T04:49:34;9.75;7.00;6.00
34176;PMS7003;20450;49.074;9.158;2023-12-14T04:52:02;9.75;7.00;6.00
34176;PMS7003;20450;49.074;9.158;2023-12-14T04:54:29;8.50;8.50;6.00
34176;PMS7003;20450;49.074;9.158;2023-12-14T04:56:56;7.50;6.25;4.00
34176;PMS7003;20450;49.074;9.158;2023-12-14T04:59:24;6.00;3.75;3.00
34176;PMS7003;20450;49.074;9.158;2023-12-14T05:01:52;7.00;7.00;5.50
34176;PMS7003;20450;49.074;9.158;2023-12-14T05:04:20;12.00;10.00;7.00
34176;PMS7003;20450;49.074;9.158;2023-12-14T05:06:47;8.50;8.50;5.00
34176;PMS7003;20450;49.074;9.158;2023-12-14T05:09:13;9.00;9.00;6.00
34176;PMS7003;20450;49.074;9.158;2023-12-14T05:11:40;9.00;9.00;6.00
34176;PMS7003;20450;49.074;9.158;2023-12-14T05:14:08;9.50;9.25;5.00
34176;PMS7003;20450;49.074;9.158;2023-12-14T05:16:38;4.00;3.00;1.00
34176;PMS7003;20450;49.074;9.158;2023-12-14T05:19:07;9.00;7.00;6.00
34176;PMS7003;20450;49.074;9.158;2023-12-14T05:21:35;10.00;10.00;7.00
34176;PMS7003;20450;49.074;9.158;2023-12-14T05:24:02;29.50;29.50;19.00
34176;PMS7003;20450;49.074;9.158;2023-12-14T05:26:30;28.50;21.25;13.50
34176;PMS7003;20450;49.074;9.158;2023-12-14T05:28:57;15.25;15.25;7.50
34176;PMS7003;20450;49.074;9.158;2023-12-14T05:31:24;18.00;16.50;9.00
34176;PMS7003;20450;49.074;9.158;2023-12-14T05:33:52;18.75;15.00;10.00
34176;PMS7003;20450;49.074;9.158;2023-12-14T05:36:20;21.00;16.50;12.25
34176;PMS7003;20450;49.074;9.158;2023-12-14T05:38:47;18.25;17.75;13.25
34176;PMS7003;20450;49.074;9.158;2023-12-14T05:41:14;15.75;11.50;7.00
34176;PMS7003;20450;49.074;9.158;2023-12-14T05:43:41;15.50;15.50;9.25
34176;PMS7003;20450;49.074;9.158;2023-12-14T05:46:08;11.50;10.00;6.75
34176;PMS7003;20450;49.074;9.158;2023-12-14T05:48:37;17.75;10.25;6.25
34176;PMS7003;20450;49.074;9.158;2023-12-14T05:51:08;17.00;12.00;9.25
34176;PMS7003;20450;49.074;9.158;2023-12-14T05:53:35;18.00;17.25;12.75
34176;PMS7003;20450;49.074;9.158;2023-12-14T05:56:02;11.75;11.50;7.50
34176;PMS7003;20450;49.074;9.158;2023-12-14T05:58:31;19.50;18.25;14.50
34176;PMS7003;20450;49.074;9.158;2023-12-14T06:00:58;16.50;14.00;7.00
34176;PMS7003;20450;49.074;9.158;2023-12-14T06:03:25;21.25;17.50;11.00
34176;PMS7003;20450;49.074;9.158;2023-12-14T06:05:52;16.75;15.75;12.00
34176;PMS7003;20450;49.074;9.158;2023-12-14T06:08:21;24.75;22.50;14.00
34176;PMS7003;20450;49.074;9.158;2023-12-14T06:10:48;13.25;12.25;9.00
34176;PMS7003;20450;49.074;9.158;2023-12-14T06:13:17;16.75;16.00;10.00
34176;PMS7003;20450;49.074;9.158;2023-12-14T06:15:44;12.50;12.50;9.75
34176;PMS7003;20450;49.074;9.158;2023-12-14T06:18:11;12.25;8.00;6.25
34176;PMS7003;20450;49.074;9.158;2023-12-14T06:20:39;13.00;10.50;9.25
34176;PMS7003;20450;49.074;9.158;2023-12-14T06:23:06;5.00;3.00;1.00
34176;PMS7003;20450;49.074;9.158;2023-12-14T06:25:34;16.25;15.00;9.00
34176;PMS7003;20450;49.074;9.158;2023-12-14T06:28:01;17.50;15.00;10.00
34176;PMS7003;20450;49.074;9.158;2023-12-14T06:30:30;15.50;9.75;7.00
34176;PMS7003;20450;49.074;9.158;2023-12-14T06:32:57;21.75;17.75;13.75
34176;PMS7003;20450;49.074;9.158;2023-12-14T06:35:24;22.00;21.25;15.00
34176;PMS7003;20450;49.074;9.158;2023-12-14T06:37:51;16.75;16.75;13.75
34176;PMS7003;20450;49.074;9.158;2023-12-14T06:40:18;13.25;13.25;9.00
34176;PMS7003;20450;49.074;9.158;2023-12-14T06:42:46;10.50;9.25;6.25
34176;PMS7003;20450;49.074;9.158;2023-12-14T06:45:13;21.25;18.25;15.75
34176;PMS7003;20450;49.074;9.158;2023-12-14T06:47:40;9.00;9.00;6.25
34176;PMS7003;20450;49.074;9.158;2023-12-14T06:50:08;11.00;11.00;7.00
34176;PMS7003;20450;49.074;9.158;2023-12-14T06:52:36;12.50;10.00;9.00
34176;PMS7003;20450;49.074;9.158;2023-12-14T06:55:03;13.00;9.25;6.25
34176;PMS7003;20450;49.074;9.158;2023-12-14T06:57:31;15.75;15.50;9.00
34176;PMS7003;20450;49.074;9.158;2023-12-14T06:59:59;12.25;10.00;7.50
34176;PMS7003;20450;49.074;9.158;2023-12-14T07:02:26;17.25;15.50;10.00
34176;PMS7003;20450;49.074;9.158;2023-12-14T07:04:53;16.75;11.50;9.00
34176;PMS7003;20450;49.074;9.158;2023-12-14T07:07:21;11.00;7.00;5.50
34176;PMS7003;20450;49.074;9.158;2023-12-14T07:09:48;10.50;9.25;6.25
34176;PMS7003;20450;49.074;9.158;2023-12-14T07:12:16;20.75;15.00;9.00
34176;PMS7003;20450;49.074;9.158;2023-12-14T07:14:43;16.00;15.25;9.50
34176;PMS7003;20450;49.074;9.158;2023-12-14T07:17:12;17.50;15.25;9.00
34176;PMS7003;20450;49.074;9.158;2023-12-14T07:19:39;15.00;9.75;6.00
34176;PMS7003;20450;49.074;9.158;2023-12-14T07:22:07;15.50;10.00;6.25
34176;PMS7003;20450;49.074;9.158;2023-12-14T07:24:34;13.50;8.25;4.50
34176;PMS7003;20450;49.074;9.158;2023-12-14T07:27:14;14.50;12.00;9.00
34176;PMS7003;20450;49.074;9.158;2023-12-14T07:29:41;12.00;11.25;8.00
34176;PMS7003;20450;49.074;9.158;2023-12-14T07:32:08;9.00;7.00;4.00
34176;PMS7003;20450;49.074;9.158;2023-12-14T07:34:37;13.00;11.50;8.00
34176;PMS7003;20450;49.074;9.158;2023-12-14T07:37:05;9.25;9.25;6.50
34176;PMS7003;20450;49.074;9.158;2023-12-14T07:39:33;17.75;13.50;9.50
34176;PMS7003;20450;49.074;9.158;2023-12-14T07:42:01;12.25;12.00;9.00
34176;PMS7003;20450;49.074;9.158;2023-12-14T07:44:28;12.00;12.00;9.00
34176;PMS7003;20450;49.074;9.158;2023-12-14T07:46:55;12.75;12.75;9.50
34176;PMS7003;20450;49.074;9.158;2023-12-14T07:49:22;18.00;15.25;9.75
34176;PMS7003;20450;49.074;9.158;2023-12-14T07:51:50;15.25;13.50;10.00
34176;PMS7003;20450;49.074;9.158;2023-12-14T07:54:18;12.25;11.00;7.00
34176;PMS7003;20450;49.074;9.158;2023-12-14T07:56:45;11.75;8.00;4.00
34176;PMS7003;20450;49.074;9.158;2023-12-14T07:59:12;12.25;11.50;6.75
34176;PMS7003;20450;49.074;9.158;2023-12-14T08:01:40;5.00;4.00;2.50
34176;PMS7003;20450;49.074;9.158;2023-12-14T08:04:08;14.50;10.00;7.00
34176;PMS7003;20450;49.074;9.158;2023-12-14T08:06:35;13.25;10.75;6.75
34176;PMS7003;20450;49.074;9.158;2023-12-14T08:09:03;9.75;9.75;7.00
34176;PMS7003;20450;49.074;9.158;2023-12-14T08:11:30;16.50;11.75;8.50
34176;PMS7003;20450;49.074;9.158;2023-12-14T08:13:57;12.25;11.50;9.00
34176;PMS7003;20450;49.074;9.158;2023-12-14T08:16:25;15.00;12.50;7.50
34176;PMS7003;20450;49.074;9.158;2023-12-14T08:18:52;12.75;12.75;7.50
34176;PMS7003;20450;49.074;9.158;2023-12-14T08:21:20;14.50;12.00;9.00
34176;PMS7003;20450;49.074;9.158;2023-12-14T08:23:47;7.75;6.75;5.00
34176;PMS7003;20450;49.074;9.158;2023-12-14T08:26:15;17.50;11.00;9.50
34176;PMS7003;20450;49.074;9.158;2023-12-14T08:28:42;12.75;10.50;8.00
34176;PMS7003;20450;49.074;9.158;2023-12-14T08:31:09;14.00;10.25;6.00
34176;PMS7003;20450;49.074;9.158;2023-12-14T08:33:36;13.50;10.50;7.00
34176;PMS7003;20450;49.074;9.158;2023-12-14T08:36:04;18.00;18.00;10.00
34176;PMS7003;20450;49.074;9.158;2023-12-14T08:38:31;13.00;10.00;5.00
34176;PMS7003;20450;49.074;9.158;2023-12-14T08:40:58;15.00;13.00;7.00
34176;PMS7003;20450;49.074;9.158;2023-12-14T08:43:27;17.50;12.50;9.00
34176;PMS7003;20450;49.074;9.158;2023-12-14T08:45:54;9.75;9.75;4.00
34176;PMS7003;20450;49.074;9.158;2023-12-14T08:48:21;8.00;8.00;6.75
34176;PMS7003;20450;49.074;9.158;2023-12-14T08:50:48;10.50;8.50;6.00
34176;PMS7003;20450;49.074;9.158;2023-12-14T08:53:15;14.50;12.50;9.00
34176;PMS7003;20450;49.074;9.158;2023-12-14T08:55:44;10.00;6.75;6.00
34176;PMS7003;20450;49.074;9.158;2023-12-14T08:58:11;13.25;11.75;8.50
34176;PMS7003;20450;49.074;9.158;2023-12-14T09:00:39;17.25;15.50;9.00
34176;PMS7003;20450;49.074;9.158;2023-12-14T09:03:07;4.00;4.00;3.00
34176;PMS7003;20450;49.074;9.158;2023-12-14T09:05:34;17.50;12.50;9.00
34176;PMS7003;20450;49.074;9.158;2023-12-14T09:08:02;9.67;9.00;6.00
34176;PMS7003;20450;49.074;9.158;2023-12-14T09:10:29;13.00;12.00;10.00
34176;PMS7003;20450;49.074;9.158;2023-12-14T09:12:56;15.00;12.67;10.00
34176;PMS7003;20450;49.074;9.158;2023-12-14T09:15:23;9.67;9.00;6.67
34176;PMS7003;20450;49.074;9.158;2023-12-14T09:17:52;12.67;9.33;6.33
34176;PMS7003;20450;49.074;9.158;2023-12-14T09:20:19;13.67;12.00;7.00
34176;PMS7003;20450;49.074;9.158;2023-12-14T09:22:47;9.00;6.67;4.67
34176;PMS7003;20450;49.074;9.158;2023-12-14T09:25:14;16.00;13.00;9.00
34176;PMS7003;20450;49.074;9.158;2023-12-14T09:27:44;24.00;11.33;7.00
34176;PMS7003;20450;49.074;9.158;2023-12-14T09:30:13;13.00;12.00;8.33
34176;PMS7003;20450;49.074;9.158;2023-12-14T09:32:40;15.00;13.00;8.33
34176;PMS7003;20450;49.074;9.158;2023-12-14T09:35:12;15.00;13.00;9.67
34176;PMS7003;20450;49.074;9.158;2023-12-14T09:37:39;15.33;13.67;9.33
34176;PMS7003;20450;49.074;9.158;2023-12-14T09:40:07;6.33;4.00;3.00
34176;PMS7003;20450;49.074;9.158;2023-12-14T09:42:38;13.00;12.00;7.67
34176;PMS7003;20450;49.074;9.158;2023-12-14T09:45:06;9.00;5.33;3.67
34176;PMS7003;20450;49.074;9.158;2023-12-14T09:47:34;16.33;10.00;6.33
34176;PMS7003;20450;49.074;9.158;2023-12-14T09:50:05;13.33;10.00;7.00
34176;PMS7003;20450;49.074;9.158;2023-12-14T09:52:35;10.75;10.00;7.00
34176;PMS7003;20450;49.074;9.158;2023-12-14T09:55:02;10.50;8.75;6.50
34176;PMS7003;20450;49.074;9.158;2023-12-14T09:57:30;12.67;10.00;6.00
34176;PMS7003;20450;49.074;9.158;2023-12-14T09:59:57;3.75;3.75;2.00
34176;PMS7003;20450;49.074;9.158;2023-12-14T10:02:27;10.67;9.00;7.00
34176;PMS7003;20450;49.074;9.158;2023-12-14T10:04:54;10.67;9.00;6.00
34176;PMS7003;20450;49.074;9.158;2023-12-14T10:07:22;9.67;6.33;4.00
34176;PMS7003;20450;49.074;9.158;2023-12-14T10:09:51;9.00;9.00;7.00
34176;PMS7003;20450;49.074;9.158;2023-12-14T10:12:18;8.67;6.00;4.00
34176;PMS7003;20450;49.074;9.158;2023-12-14T10:14:46;4.00;4.00;3.00
34176;PMS7003;20450;49.074;9.158;2023-12-14T10:17:17;13.67;13.00;6.33
34176;PMS7003;20450;49.074;9.158;2023-12-14T10:19:46;9.33;7.00;6.00
34176;PMS7003;20450;49.074;9.158;2023-12-14T10:22:16;10.00;9.00;6.00
34176;PMS7003;20450;49.074;9.158;2023-12-14T10:24:46;10.50;8.00;5.00
34176;PMS7003;20450;49.074;9.158;2023-12-14T10:27:15;12.00;10.00;7.00
34176;PMS7003;20450;49.074;9.158;2023-12-14T10:29:44;9.25;9.25;6.75
34176;PMS7003;20450;49.074;9.158;2023-12-14T10:32:12;13.00;7.00;5.33
34176;PMS7003;20450;49.074;9.158;2023-12-14T10:34:40;14.00;11.00;7.00
34176;PMS7003;20450;49.074;9.158;2023-12-14T10:37:07;12.50;10.00;6.75
34176;PMS7003;20450;49.074;9.158;2023-12-14T10:39:40;14.50;10.50;7.00
34176;PMS7003;20450;49.074;9.158;2023-12-14T10:42:10;13.25;13.25;8.00
34176;PMS7003;20450;49.074;9.158;2023-12-14T10:44:49;7.50;7.50;5.00
34176;PMS7003;20450;49.074;9.158;2023-12-14T10:47:23;9.50;9.50;6.00
34176;PMS7003;20450;49.074;9.158;2023-12-14T10:49:50;9.25;9.25;6.25
34176;PMS7003;20450;49.074;9.158;2023-12-14T10:52:18;9.50;9.00;4.00
34176;PMS7003;20450;49.074;9.158;2023-12-14T10:54:49;8.67;6.33;1.67
34176;PMS7003;20450;49.074;9.158;2023-12-14T10:57:27;4.50;4.00;1.50
34176;PMS7003;20450;49.074;9.158;2023-12-14T10:59:58;15.25;15.25;9.75
34176;PMS7003;20450;49.074;9.158;2023-12-14T11:02:31;14.33;11.33;8.33
34176;PMS7003;20450;49.074;9.158;2023-12-14T11:05:06;15.00;12.00;9.00
34176;PMS7003;20450;49.074;9.158;2023-12-14T11:07:47;11.67;10.00;6.00
34176;PMS7003;20450;49.074;9.158;2023-12-14T11:10:20;8.33;8.33;4.67
34176;PMS7003;20450;49.074;9.158;2023-12-14T11:12:50;7.67;7.67;6.33
34176;PMS7003;20450;49.074;9.158;2023-12-14T11:15:23;15.33;12.00;7.00
34176;PMS7003;20450;49.074;9.158;2023-12-14T11:20:57;12.00;7.67;6.00
34176;PMS7003;20450;49.074;9.158;2023-12-14T11:23:31;8.33;8.33;6.00
34176;PMS7003;20450;49.074;9.158;2023-12-14T11:26:02;6.67;6.00;3.33
34176;PMS7003;20450;49.074;9.158;2023-12-14T11:28:33;9.00;9.00;6.33
34176;PMS7003;20450;49.074;9.158;2023-12-14T11:31:04;6.33;6.00;4.00
34176;PMS7003;20450;49.074;9.158;2023-12-14T11:33:32;9.00;9.00;6.00
34176;PMS7003;20450;49.074;9.158;2023-12-14T11:36:00;9.00;9.00;6.67
34176;PMS7003;20450;49.074;9.158;2023-12-14T11:38:30;11.33;11.33;7.67
34176;PMS7003;20450;49.074;9.158;2023-12-14T11:40:58;10.67;6.67;4.67
34176;PMS7003;20450;49.074;9.158;2023-12-14T11:43:25;10.00;7.00;4.67
34176;PMS7003;20450;49.074;9.158;2023-12-14T11:45:53;11.33;11.33;8.33
34176;PMS7003;20450;49.074;9.158;2023-12-14T11:48:21;9.67;7.67;4.67
34176;PMS7003;20450;49.074;9.158;2023-12-14T11:50:49;9.67;9.67;7.00
34176;PMS7003;20450;49.074;9.158;2023-12-14T11:53:18;10.00;9.00;6.00
34176;PMS7003;20450;49.074;9.158;2023-12-14T11:55:45;12.00;10.00;7.00
34176;PMS7003;20450;49.074;9.158;2023-12-14T11:58:12;9.33;9.00;6.67
34176;PMS7003;20450;49.074;9.158;2023-12-14T12:00:42;17.33;9.00;7.00
34176;PMS7003;20450;49.074;9.158;2023-12-14T12:03:10;8.33;6.00;4.00
34176;PMS7003;20450;49.074;9.158;2023-12-14T12:05:41;7.00;6.00;4.00
34176;PMS7003;20450;49.074;9.158;2023-12-14T12:08:10;3.67;3.67;3.00
34176;PMS7003;20450;49.074;9.158;2023-12-14T12:10:41;4.00;4.00;3.00
34176;PMS7003;20450;49.074;9.158;2023-12-14T12:13:11;4.00;4.00;4.00
34176;PMS7003;20450;49.074;9.158;2023-12-14T12:15:41;10.00;5.67;3.33
34176;PMS7003;20450;49.074;9.158;2023-12-14T12:18:09;8.67;6.33;5.33
34176;PMS7003;20450;49.074;9.158;2023-12-14T12:20:39;13.00;9.00;6.33
34176;PMS7003;20450;49.074;9.158;2023-12-14T12:23:10;9.67;6.00;4.00
34176;PMS7003;20450;49.074;9.158;2023-12-14T12:25:38;3.00;3.00;1.00
34176;PMS7003;20450;49.074;9.158;2023-12-14T12:28:06;8.00;6.00;4.67
34176;PMS7003;20450;49.074;9.158;2023-12-14T12:30:33;16.50;13.50;8.50
34176;PMS7003;20450;49.074;9.158;2023-12-14T12:33:06;7.00;7.00;5.33
34176;PMS7003;20450;49.074;9.158;2023-12-14T12:35:33;6.00;4.00;4.00
34176;PMS7003;20450;49.074;9.158;2023-12-14T12:38:02;1.67;1.00;1.00
34176;PMS7003;20450;49.074;9.158;2023-12-14T12:40:31;4.00;1.00;1.00
34176;PMS7003;20450;49.074;9.158;2023-12-14T12:43:00;1.00;1.00;0.67
34176;PMS7003;20450;49.074;9.158;2023-12-14T12:45:27;1.00;1.00;1.00
34176;PMS7003;20450;49.074;9.158;2023-12-14T12:47:56;2.00;2.00;1.00
34176;PMS7003;20450;49.074;9.158;2023-12-14T12:50:24;3.00;1.00;0.75
34176;PMS7003;20450;49.074;9.158;2023-12-14T12:52:51;6.25;5.75;4.00
34176;PMS7003;20450;49.074;9.158;2023-12-14T12:55:20;3.00;3.00;2.50
34176;PMS7003;20450;49.074;9.158;2023-12-14T12:57:49;0.75;0.75;0.25
34176;PMS7003;20450;49.074;9.158;2023-12-14T13:00:16;5.75;5.75;5.00
34176;PMS7003;20450;49.074;9.158;2023-12-14T13:02:44;3.50;2.00;1.00
34176;PMS7003;20450;49.074;9.158;2023-12-14T13:05:12;3.00;3.00;1.00
34176;PMS7003;20450;49.074;9.158;2023-12-14T13:07:44;3.00;3.00;3.00
34176;PMS7003;20450;49.074;9.158;2023-12-14T13:10:13;8.50;3.75;3.00
34176;PMS7003;20450;49.074;9.158;2023-12-14T13:12:58;3.00;3.00;1.00
34176;PMS7003;20450;49.074;9.158;2023-12-14T13:15:25;4.50;4.50;4.00
34176;PMS7003;20450;49.074;9.158;2023-12-14T13:17:54;4.00;4.00;4.00
34176;PMS7003;20450;49.074;9.158;2023-12-14T13:20:21;7.50;7.50;6.25
34176;PMS7003;20450;49.074;9.158;2023-12-14T13:22:52;4.50;4.50;3.50
34176;PMS7003;20450;49.074;9.158;2023-12-14T13:25:19;1.00;1.00;0.50
34176;PMS7003;20450;49.074;9.158;2023-12-14T13:27:46;4.00;4.00;3.00
34176;PMS7003;20450;49.074;9.158;2023-12-14T13:30:15;7.00;5.00;4.00
34176;PMS7003;20450;49.074;9.158;2023-12-14T13:32:42;6.00;3.00;3.00
34176;PMS7003;20450;49.074;9.158;2023-12-14T13:35:09;4.00;4.00;4.00
34176;PMS7003;20450;49.074;9.158;2023-12-14T13:37:36;7.00;6.00;4.50
34176;PMS7003;20450;49.074;9.158;2023-12-14T13:40:06;9.00;6.50;3.75
34176;PMS7003;20450;49.074;9.158;2023-12-14T13:42:34;5.00;5.00;3.75
34176;PMS7003;20450;49.074;9.158;2023-12-14T13:45:14;5.00;3.50;2.00
34176;PMS7003;20450;49.074;9.158;2023-12-14T13:47:43;8.75;8.25;7.00
34176;PMS7003;20450;49.074;9.158;2023-12-14T13:50:10;9.50;6.25;5.00
34176;PMS7003;20450;49.074;9.158;2023-12-14T13:52:37;5.75;4.50;3.25
34176;PMS7003;20450;49.074;9.158;2023-12-14T13:55:04;6.50;6.50;4.50
34176;PMS7003;20450;49.074;9.158;2023-12-14T13:57:32;6.00;6.00;5.50
34176;PMS7003;20450;49.074;9.158;2023-12-14T14:00:00;11.00;9.75;6.00
34176;PMS7003;20450;49.074;9.158;2023-12-14T14:02:29;7.25;5.75;3.50
34176;PMS7003;20450;49.074;9.158;2023-12-14T14:04:57;6.25;5.00;4.00
34176;PMS7003;20450;49.074;9.158;2023-12-14T14:07:25;9.50;9.50;6.50
34176;PMS7003;20450;49.074;9.158;2023-12-14T14:09:54;8.50;8.50;5.00
34176;PMS7003;20450;49.074;9.158;2023-12-14T14:12:22;11.75;6.00;5.00
34176;PMS7003;20450;49.074;9.158;2023-12-14T14:14:50;9.75;9.00;7.00
34176;PMS7003;20450;49.074;9.158;2023-12-14T14:17:17;11.00;9.00;6.25
34176;PMS7003;20450;49.074;9.158;2023-12-14T14:19:46;9.50;8.00;4.50
34176;PMS7003;20450;49.074;9.158;2023-12-14T14:22:13;9.00;7.00;6.00